Time;durP1;ratioP1;P1;durP2;ratioP2;P2;SDS_P1;SDS_P2;PMS_P1;PMS_P2;Temp;Humidity;BMP_temperature;BMP_pressure;BME280_temperature;BME280_humidity;BME280_pressure;Samples;Min_cycle;Max_cycle;Signal;HPM_P1;HPM_P2
2021/01/02 00:06:09;;;;;;;43.13;27.73;;;;;;;2.32;74.62;100904.81;4898268;29;20052;-67
2021/01/02 00:08:37;;;;;;;39.40;26.23;;;;;;;2.64;73.91;100906.50;4896853;29;20485;-65
2021/01/02 00:11:07;;;;;;;42.85;26.85;;;;;;;2.51;73.62;100904.19;4898040;29;20405;-66
2021/01/02 00:13:52;;;;;;;44.42;26.90;;;;;;;2.61;73.65;100907.03;4898227;29;20465;-64
2021/01/02 00:21:01;;;;;;;48.67;26.67;;;;;;;2.73;72.77;100904.97;4897467;29;20048;-65
2021/01/02 00:23:50;;;;;;;44.10;27.88;;;;;;;2.42;74.22;100907.63;4881212;29;20056;-66
2021/01/02 00:26:39;;;;;;;47.15;28.80;;;;;;;2.51;73.82;100912.34;4896610;29;20060;-65
2021/01/02 00:29:07;;;;;;;44.58;28.40;;;;;;;2.56;73.49;100912.44;4898097;29;20056;-66
2021/01/02 00:32:06;;;;;;;43.83;28.50;;;;;;;2.42;74.00;100908.47;4865827;29;20057;-66
2021/01/02 00:34:58;;;;;;;45.53;28.80;;;;;;;2.59;73.64;100911.91;4881219;29;20052;-67
2021/01/02 00:37:52;;;;;;;43.20;27.92;;;;;;;2.57;73.54;100911.34;4897716;29;20056;-67
2021/01/02 00:40:19;;;;;;;45.20;27.67;;;;;;;2.48;73.82;100910.16;4896145;29;20055;-67
2021/01/02 00:42:51;;;;;;;48.50;29.38;;;;;;;2.50;74.19;100907.16;4897806;29;20112;-66
2021/01/02 00:49:55;;;;;;;50.03;29.52;;;;;;;2.41;74.64;100920.41;4897556;29;20048;-67
2021/01/02 00:52:44;;;;;;;43.92;27.95;;;;;;;2.28;74.59;100910.72;4897873;29;20059;-66
2021/01/02 00:55:50;;;;;;;46.80;28.40;;;;;;;2.46;74.15;100908.78;4896447;29;20056;-65
2021/01/02 00:58:40;;;;;;;49.33;28.42;;;;;;;2.48;73.87;100909.31;4881241;29;20172;-66
2021/01/02 01:01:13;;;;;;;44.78;28.50;;;;;;;2.43;74.07;100904.66;4880734;29;20063;-66
2021/01/02 01:04:00;;;;;;;52.70;28.70;;;;;;;2.27;74.67;100914.53;4881893;29;20048;-66
2021/01/02 01:06:29;;;;;;;48.95;29.60;;;;;;;2.38;74.27;100917.38;4897994;29;20060;-66
2021/01/02 01:09:04;;;;;;;46.50;29.13;;;;;;;2.33;74.60;100917.31;4897837;29;20040;-66
2021/01/02 01:11:34;;;;;;;45.97;30.27;;;;;;;2.23;74.87;100916.09;4897549;29;20390;-65
2021/01/02 01:14:03;;;;;;;47.83;29.80;;;;;;;2.21;74.98;100915.53;4899804;29;20052;-67
2021/01/02 01:16:39;;;;;;;48.38;29.38;;;;;;;2.48;74.22;100912.03;4901309;29;20425;-67
2021/01/02 01:19:07;;;;;;;44.55;29.08;;;;;;;2.27;74.60;100917.25;4901606;29;20485;-68
2021/01/02 01:21:35;;;;;;;49.00;30.20;;;;;;;2.39;74.80;100911.66;4869146;29;20049;-66
2021/01/02 01:24:12;;;;;;;49.65;29.45;;;;;;;2.42;74.11;100922.06;4884711;29;20497;-67
2021/01/02 01:27:02;;;;;;;50.28;29.95;;;;;;;2.20;74.60;100919.34;4883991;29;20064;-66
2021/01/02 01:33:29;;;;;;;46.38;29.45;;;;;;;2.41;74.32;100920.41;4900888;29;20048;-66
2021/01/02 01:36:00;;;;;;;;;;;;;;;2.25;74.86;100924.00;4901347;29;20052;-67
2021/01/02 01:38:28;;;;;;;45.47;28.52;;;;;;;2.11;75.27;100915.44;4899612;29;20291;-67
2021/01/02 01:41:04;;;;;;;46.88;30.13;;;;;;;2.01;76.19;100928.06;4900906;29;20397;-66
2021/01/02 01:43:55;;;;;;;48.20;29.67;;;;;;;1.98;76.33;100925.84;4884245;29;20057;-67
2021/01/02 01:51:00;;;;;;;46.83;29.40;;;;;;;2.00;76.75;100929.97;4900626;29;20055;-66
2021/01/02 01:54:07;;;;;;;44.42;29.10;;;;;;;2.09;76.58;100931.16;4868759;29;20052;-67
2021/01/02 01:56:38;;;;;;;45.50;29.50;;;;;;;2.42;75.54;100930.22;4884034;29;20059;-67
2021/01/02 01:59:17;;;;;;;47.97;29.23;;;;;;;2.63;73.95;100923.09;4883838;29;20051;-66
2021/01/02 02:06:22;;;;;;;44.95;27.40;;;;;;;2.67;73.63;100930.47;4893590;29;20057;-66
2021/01/02 02:08:56;;;;;;;44.67;28.15;;;;;;;2.67;73.48;100935.09;4899754;29;20060;-66
2021/01/02 02:11:43;;;;;;;45.00;26.85;;;;;;;2.59;74.24;100932.81;4880418;29;20060;-66
2021/01/02 02:14:13;;;;;;;45.33;28.33;;;;;;;2.30;74.67;100929.53;4894583;29;20389;-66
2021/01/02 02:21:05;;;;;;;45.15;27.40;;;;;;;2.60;73.77;100937.19;4900414;29;20053;-65
2021/01/02 02:23:35;;;;;;;44.05;27.15;;;;;;;2.50;73.97;100929.75;4880714;29;20049;-66
2021/01/02 02:26:08;;;;;;;45.17;27.42;;;;;;;2.38;74.96;100941.81;4879117;29;20053;-64
2021/01/02 02:28:53;;;;;;;45.80;28.90;;;;;;;2.53;73.88;100947.47;4881210;29;20057;-66
2021/01/02 02:31:23;;;;;;;47.65;28.98;;;;;;;2.37;74.12;100941.03;4900041;29;20064;-67
2021/01/02 02:33:54;;;;;;;;;;;;;;;2.27;74.91;100944.44;4899959;29;20059;-66
2021/01/02 02:36:21;;;;;;;45.40;27.95;;;;;;;2.15;75.03;100938.31;4895273;29;19935;-67
2021/01/02 02:38:48;;;;;;;45.63;29.00;;;;;;;2.13;75.36;100945.06;4899219;29;20045;-67
2021/01/02 02:41:16;;;;;;;46.75;28.60;;;;;;;2.05;75.52;100942.78;4899519;29;20505;-66
2021/01/02 02:43:46;;;;;;;44.20;28.77;;;;;;;2.02;76.35;100938.66;4899792;29;20151;-65
2021/01/02 02:46:14;;;;;;;45.28;28.10;;;;;;;1.94;76.39;100944.53;4880068;29;20045;-66
2021/01/02 02:48:46;;;;;;;47.88;28.80;;;;;;;1.93;76.51;100948.34;4881131;29;20057;-65
2021/01/02 02:51:15;;;;;;;47.67;28.30;;;;;;;2.12;76.06;100952.41;4880087;29;20052;-66
2021/01/02 02:53:42;;;;;;;46.00;28.75;;;;;;;1.99;76.82;100950.03;4898605;29;20393;-67
2021/01/02 02:56:10;;;;;;;43.53;28.20;;;;;;;1.99;76.33;100952.75;4879732;29;20057;-67
2021/01/02 02:58:37;;;;;;;51.63;30.17;;;;;;;2.08;76.48;100956.69;4880828;29;20057;-65
2021/01/02 03:01:04;;;;;;;51.67;29.73;;;;;;;2.22;75.63;100954.41;4879798;29;20053;-65
2021/01/02 03:03:31;;;;;;;48.47;29.85;;;;;;;1.82;76.45;100957.41;4896460;29;20516;-64
2021/01/02 03:05:58;;;;;;;48.05;29.38;;;;;;;1.68;77.85;100961.56;4899486;29;20061;-66
2021/01/02 03:08:26;;;;;;;48.88;31.33;;;;;;;1.51;78.38;100947.19;4894723;29;20517;-66
2021/01/02 03:10:53;;;;;;;51.10;30.67;;;;;;;1.68;78.51;100947.16;4882505;29;20060;-66
2021/01/02 03:13:23;;;;;;;52.17;30.83;;;;;;;1.71;77.76;100949.38;4879528;29;20060;-67
2021/01/02 03:15:50;;;;;;;;;;;;;;;1.69;77.59;100940.66;4883072;29;20550;-67
2021/01/02 03:18:17;;;;;;;51.30;30.30;;;;;;;1.74;77.62;100943.44;4899242;29;19932;-66
2021/01/02 03:20:44;;;;;;;48.65;31.33;;;;;;;1.44;78.25;100938.38;4898815;29;20053;-67
2021/01/02 03:23:10;;;;;;;47.97;30.00;;;;;;;1.36;78.22;100944.22;4879500;29;20068;-66
2021/01/02 03:25:37;;;;;;;54.75;31.65;;;;;;;1.37;78.78;100943.16;4895846;29;20053;-66
2021/01/02 03:28:04;;;;;;;45.90;30.15;;;;;;;1.31;78.92;100946.06;4899212;29;20076;-66
2021/01/02 03:30:31;;;;;;;50.60;30.65;;;;;;;1.20;79.10;100942.34;4898621;29;20063;-66
2021/01/02 03:32:58;;;;;;;48.55;30.20;;;;;;;1.35;78.82;100937.16;4898539;29;20053;-66
2021/01/02 03:35:25;;;;;;;49.22;30.33;;;;;;;1.40;78.64;100933.69;4898066;29;20049;-66
2021/01/02 03:37:52;;;;;;;47.58;30.00;;;;;;;1.42;78.20;100937.81;4882067;29;20067;-67
2021/01/02 03:40:19;;;;;;;45.88;30.60;;;;;;;1.40;78.14;100937.22;4899095;29;20056;-66
2021/01/02 03:42:47;;;;;;;49.60;31.13;;;;;;;1.40;78.54;100934.53;4898966;29;20513;-67
2021/01/02 03:45:16;;;;;;;47.35;31.13;;;;;;;1.51;77.73;100932.78;4898921;29;20066;-66
2021/01/02 03:47:44;;;;;;;49.38;30.05;;;;;;;1.54;78.18;100935.81;4898642;29;20386;-67
2021/01/02 03:50:11;;;;;;;49.70;30.15;;;;;;;1.46;78.34;100936.25;4878596;29;20060;-66
2021/01/02 03:52:39;;;;;;;46.05;29.70;;;;;;;1.62;78.10;100935.38;4896718;29;20053;-66
2021/01/02 03:55:07;;;;;;;45.15;29.55;;;;;;;1.60;77.87;100934.00;4898567;29;20052;-67
2021/01/02 03:57:34;;;;;;;47.72;30.33;;;;;;;1.50;77.44;100940.09;4898738;29;20382;-67
2021/01/02 04:00:08;;;;;;;46.22;29.95;;;;;;;1.53;77.90;100939.63;4898585;29;20405;-66
2021/01/02 04:07:12;;;;;;;49.40;29.92;;;;;;;1.56;78.11;100939.13;4822566;29;20141;-67
2021/01/02 04:09:39;;;;;;;49.50;30.83;;;;;;;1.51;77.78;100944.47;4807581;29;20065;-65
2021/01/02 04:12:06;;;;;;;50.95;30.77;;;;;;;1.39;78.55;100941.03;4807211;29;20059;-65
2021/01/02 04:14:33;;;;;;;50.15;31.45;;;;;;;1.55;79.11;100934.75;4821928;29;20524;-66
2021/01/02 04:21:22;;;;;;;51.35;30.85;;;;;;;1.83;77.32;100937.31;4871498;29;20060;-66
2021/01/02 04:23:49;;;;;;;49.42;31.10;;;;;;;1.56;77.53;100936.41;4898101;29;20056;-68
2021/01/02 04:26:23;;;;;;;46.58;29.70;;;;;;;1.61;78.50;100943.78;4898247;29;20052;-65
2021/01/02 04:28:51;;;;;;;49.65;30.33;;;;;;;1.59;78.15;100937.78;4897766;29;20064;-66
2021/01/02 04:31:22;;;;;;;47.72;29.70;;;;;;;2.09;77.23;100942.00;4878042;29;20053;-66
2021/01/02 04:33:55;;;;;;;50.72;30.13;;;;;;;1.83;76.94;100947.38;4890553;29;20393;-66
2021/01/02 04:36:22;;;;;;;48.20;31.00;;;;;;;1.67;77.60;100946.34;4897889;29;20060;-66
2021/01/02 04:38:49;;;;;;;52.72;31.48;;;;;;;1.58;78.03;100942.41;4897804;29;20061;-67
2021/01/02 04:41:16;;;;;;;51.28;31.90;;;;;;;1.52;78.31;100948.81;4897467;29;20057;-66
2021/01/02 04:43:53;;;;;;;55.15;31.90;;;;;;;1.63;78.36;100944.38;4897839;29;20059;-65
2021/01/02 04:46:22;;;;;;;53.28;32.03;;;;;;;1.22;80.07;100947.53;4897612;29;20053;-66
2021/01/02 04:48:49;;;;;;;47.25;31.05;;;;;;;1.37;79.81;100945.88;4879971;29;20408;-66
2021/01/02 04:51:17;;;;;;;53.90;32.58;;;;;;;1.37;79.48;100948.59;4897682;29;20405;-66
2021/01/02 04:53:45;;;;;;;54.67;33.75;;;;;;;1.02;80.57;100954.25;4897731;29;20057;-65
2021/01/02 04:56:12;;;;;;;53.22;33.08;;;;;;;1.10;80.78;100945.72;4897838;29;20060;-66
2021/01/02 04:58:43;;;;;;;55.42;33.28;;;;;;;1.43;80.85;100938.66;4897102;29;20053;-66
2021/01/02 05:01:12;;;;;;;53.03;33.40;;;;;;;1.53;79.60;100939.63;4897538;29;20068;-67
2021/01/02 05:03:46;;;;;;;55.80;34.03;;;;;;;1.28;79.85;100935.69;4897516;29;20438;-68
2021/01/02 05:06:22;;;;;;;55.65;33.83;;;;;;;1.32;80.19;100940.38;4896959;29;20130;-67
2021/01/02 05:08:50;;;;;;;54.53;33.08;;;;;;;1.61;79.38;100944.63;4897443;29;20048;-68
2021/01/02 05:11:18;;;;;;;56.42;33.78;;;;;;;1.37;79.59;100936.91;4897506;29;20053;-66
2021/01/02 05:13:45;;;;;;;58.88;33.22;;;;;;;1.43;79.52;100941.34;4897579;29;20063;-65
2021/01/02 05:16:16;;;;;;;54.47;34.05;;;;;;;1.35;80.03;100942.59;4897492;29;20068;-67
2021/01/02 05:18:57;;;;;;;59.08;34.95;;;;;;;1.50;79.98;100936.59;4896873;29;20052;-66
2021/01/02 05:21:27;;;;;;;56.28;34.28;;;;;;;1.59;79.13;100945.91;4896510;29;20048;-66
2021/01/02 05:24:20;;;;;;;62.13;36.47;;;;;;;1.49;79.57;100941.19;4897431;29;20059;-67
2021/01/02 05:26:59;;;;;;;57.78;35.20;;;;;;;1.53;79.04;100946.94;4895927;29;20053;-67
2021/01/02 05:29:28;;;;;;;63.72;37.40;;;;;;;1.34;79.86;100950.97;4897367;29;20049;-66
2021/01/02 05:32:01;;;;;;;59.58;36.17;;;;;;;1.27;80.12;100934.88;4889601;29;20052;-67
2021/01/02 05:34:33;;;;;;;55.83;35.17;;;;;;;1.37;80.29;100931.47;4877540;29;20483;-65
2021/01/02 05:37:06;;;;;;;56.00;34.63;;;;;;;1.76;79.24;100935.88;4890646;29;20056;-66
2021/01/02 05:39:49;;;;;;;54.03;33.97;;;;;;;1.74;78.66;100938.03;4896979;29;20064;-66
2021/01/02 05:42:17;;;;;;;57.92;34.97;;;;;;;1.92;77.74;100943.13;4897275;29;20382;-66
2021/01/02 05:44:44;;;;;;;53.53;32.97;;;;;;;1.91;77.56;100939.63;4879401;29;20045;-66
2021/01/02 05:47:11;;;;;;;59.30;34.30;;;;;;;2.03;76.78;100940.31;4892955;29;20425;-66
2021/01/02 05:49:40;;;;;;;55.20;33.35;;;;;;;2.25;76.29;100934.88;4895405;29;20057;-65
2021/01/02 05:52:09;;;;;;;50.80;32.92;;;;;;;2.25;75.63;100934.88;4896762;29;20060;-65
2021/01/02 05:54:48;;;;;;;56.67;33.70;;;;;;;2.00;76.55;100940.00;4897153;29;20059;-66
2021/01/02 05:57:25;;;;;;;57.30;33.80;;;;;;;1.97;76.72;100945.94;4897306;29;20052;-67
2021/01/02 05:59:53;;;;;;;56.92;33.03;;;;;;;1.72;77.63;100945.59;4882209;29;20497;-66
2021/01/02 06:02:25;;;;;;;55.70;34.60;;;;;;;1.66;77.35;100949.28;4880397;29;20076;-66
2021/01/02 06:04:56;;;;;;;55.03;34.97;;;;;;;1.71;78.26;100952.91;4900278;29;20068;-66
2021/01/02 06:07:31;;;;;;;58.28;35.00;;;;;;;2.03;77.15;100951.19;4900483;29;20065;-67
2021/01/02 06:09:58;;;;;;;59.78;34.83;;;;;;;2.04;76.71;100960.97;4893286;29;20056;-66
2021/01/02 06:12:33;;;;;;;57.90;34.72;;;;;;;2.26;76.35;100958.28;4900443;29;20059;-66
2021/01/02 06:15:06;;;;;;;56.83;34.33;;;;;;;2.34;75.34;100954.31;4900388;29;20059;-67
2021/01/02 06:17:38;;;;;;;53.50;33.72;;;;;;;2.06;75.75;100958.84;4881331;29;20060;-66
2021/01/02 06:20:08;;;;;;;53.65;33.20;;;;;;;2.35;75.50;100958.66;4892389;29;20057;-66
2021/01/02 06:22:40;;;;;;;55.25;33.28;;;;;;;2.30;75.27;100965.66;4899680;29;20417;-67
2021/01/02 06:25:10;;;;;;;55.65;35.55;;;;;;;2.32;75.11;100959.97;4900282;29;20075;-66
2021/01/02 06:27:40;;;;;;;54.92;33.28;;;;;;;2.04;75.61;100952.81;4900392;29;20064;-66
2021/01/02 06:30:08;;;;;;;57.92;35.45;;;;;;;1.97;75.94;100965.75;4880126;29;20079;-66
2021/01/02 06:32:35;;;;;;;54.95;33.42;;;;;;;2.14;76.24;100963.81;4881224;29;20053;-66
2021/01/02 06:35:08;;;;;;;58.22;33.38;;;;;;;2.16;75.17;100961.66;4899917;29;20055;-67
2021/01/02 06:37:58;;;;;;;54.92;34.13;;;;;;;2.41;75.01;100955.72;4900147;29;20056;-67
2021/01/02 06:40:27;;;;;;;54.90;35.05;;;;;;;2.22;74.82;100959.84;4890736;29;20068;-67
2021/01/02 06:42:58;;;;;;;49.80;32.10;;;;;;;2.41;74.29;100963.09;4892242;29;20055;-67
2021/01/02 06:45:37;;;;;;;58.65;35.05;;;;;;;1.99;74.84;100971.78;4899793;29;20063;-67
2021/01/02 06:48:37;;;;;;;57.28;34.50;;;;;;;2.21;74.93;100974.53;4860150;29;20060;-67
2021/01/02 06:51:27;;;;;;;52.83;33.95;;;;;;;2.11;75.17;100977.91;4859855;29;20056;-67
2021/01/02 06:53:54;;;;;;;55.45;33.55;;;;;;;1.92;75.66;100984.72;4853152;29;20057;-68
2021/01/02 06:56:29;;;;;;;56.10;34.13;;;;;;;2.05;75.32;100980.81;4859841;29;20058;-67
2021/01/02 06:58:56;;;;;;;55.17;34.05;;;;;;;1.60;76.52;100983.72;4860334;29;20057;-66
2021/01/02 07:05:49;;;;;;;51.95;32.47;;;;;;;2.06;75.71;100987.88;4869102;29;20055;-65
2021/01/02 07:08:44;;;;;;;56.20;34.08;;;;;;;2.20;74.98;100987.28;4879687;29;20048;-67
2021/01/02 07:11:29;;;;;;;57.35;34.40;;;;;;;2.08;74.76;100994.72;4893149;29;20056;-67
2021/01/02 07:14:08;;;;;;;59.90;34.90;;;;;;;1.95;75.20;100995.06;4891853;29;20053;-67
2021/01/02 07:21:31;;;;;;;57.17;33.13;;;;;;;2.01;75.28;100998.69;4899449;29;20056;-66
2021/01/02 07:24:25;;;;;;;58.88;33.92;;;;;;;1.95;75.04;101008.66;4891763;29;20048;-66
2021/01/02 07:27:01;;;;;;;54.42;34.50;;;;;;;1.85;75.08;101005.78;4844529;29;20169;-66
2021/01/02 07:29:29;;;;;;;60.35;36.58;;;;;;;1.59;76.62;101009.19;4844058;29;20494;-66
2021/01/02 07:32:04;;;;;;;59.15;36.53;;;;;;;1.46;76.81;101011.41;4859178;29;20433;-66
2021/01/02 07:34:31;;;;;;;54.58;36.17;;;;;;;1.59;77.38;101020.03;4859346;29;20402;-66
2021/01/02 07:37:09;;;;;;;56.33;33.92;;;;;;;1.57;77.17;101015.94;4858900;29;20057;-67
2021/01/02 07:39:37;;;;;;;61.97;37.40;;;;;;;1.50;77.36;101013.38;4859855;29;20068;-66
2021/01/02 07:42:11;;;;;;;57.38;34.75;;;;;;;2.01;75.92;101009.53;4844008;29;20526;-66
2021/01/02 07:44:39;;;;;;;57.05;33.65;;;;;;;2.23;74.93;101015.84;4843986;29;20057;-65
2021/01/02 07:47:07;;;;;;;52.58;34.63;;;;;;;2.13;74.75;101011.09;4844297;29;20054;-66
2021/01/02 07:49:34;;;;;;;57.63;34.63;;;;;;;2.20;74.86;101013.63;4858832;29;20053;-67
2021/01/02 07:52:02;;;;;;;61.50;35.28;;;;;;;1.99;75.20;101015.25;4858732;29;20061;-68
2021/01/02 07:54:34;;;;;;;54.97;34.72;;;;;;;1.80;76.06;101013.03;4859434;29;20097;-68
2021/01/02 07:57:07;;;;;;;56.60;33.38;;;;;;;1.93;75.77;101018.97;4859205;29;20087;-68
2021/01/02 07:59:37;;;;;;;52.13;32.85;;;;;;;2.10;74.66;101017.03;4858673;29;20072;-67
2021/01/02 08:02:23;;;;;;;55.25;32.55;;;;;;;2.28;74.38;101019.44;4859023;29;20453;-67
2021/01/02 08:04:54;;;;;;;55.05;34.42;;;;;;;2.42;73.63;101016.38;4876367;29;20064;-67
2021/01/02 08:07:21;;;;;;;54.45;33.90;;;;;;;2.34;73.47;101020.31;4897524;29;20508;-66
2021/01/02 08:09:49;;;;;;;54.35;34.38;;;;;;;2.18;73.92;101023.91;4880742;29;20053;-67
2021/01/02 08:12:18;;;;;;;53.90;34.28;;;;;;;1.99;73.91;101019.84;4897675;29;20496;-67
2021/01/02 08:14:47;;;;;;;57.75;34.30;;;;;;;1.99;73.87;101025.28;4895641;29;20342;-66
2021/01/02 08:17:18;;;;;;;54.03;34.30;;;;;;;1.72;75.15;101024.31;4897904;29;20064;-66
2021/01/02 08:19:45;;;;;;;54.33;33.67;;;;;;;1.97;74.73;101030.97;4879988;29;20485;-66
2021/01/02 08:22:13;;;;;;;56.20;33.83;;;;;;;2.21;73.07;101026.94;4898065;29;20056;-66
2021/01/02 08:24:42;;;;;;;56.10;33.42;;;;;;;1.77;74.91;101024.41;4898160;29;20077;-66
2021/01/02 08:27:09;;;;;;;57.20;33.88;;;;;;;1.85;74.85;101029.41;4897681;29;20059;-66
2021/01/02 08:29:36;;;;;;;58.00;34.00;;;;;;;1.89;74.65;101030.56;4897906;29;20060;-66
2021/01/02 08:32:09;;;;;;;54.67;35.08;;;;;;;1.76;75.25;101034.44;4897532;29;20056;-67
2021/01/02 08:34:36;;;;;;;57.50;36.25;;;;;;;1.67;75.48;101030.50;4894518;29;20064;-65
2021/01/02 08:37:06;;;;;;;59.20;35.50;;;;;;;1.51;75.76;101038.63;4897288;29;20430;-65
2021/01/02 08:39:34;;;;;;;55.70;34.05;;;;;;;1.66;76.19;101041.59;4897969;29;20382;-66
2021/01/02 08:42:02;;;;;;;70.13;41.65;;;;;;;1.55;76.46;101042.53;4862759;29;20056;-66
2021/01/02 08:44:31;;;;;;;55.65;34.75;;;;;;;1.58;76.54;101042.84;4894745;29;20056;-67
2021/01/02 08:46:58;;;;;;;61.33;35.63;;;;;;;1.63;76.54;101042.09;4897742;29;20370;-66
2021/01/02 08:49:36;;;;;;;58.20;35.10;;;;;;;1.87;75.14;101041.69;4878019;29;20056;-66
2021/01/02 08:52:33;;;;;;;56.45;35.15;;;;;;;2.01;75.33;101048.41;4891194;29;20052;-66
2021/01/02 08:55:16;;;;;;;53.30;33.72;;;;;;;2.22;74.32;101044.91;4896130;29;20057;-66
2021/01/02 08:57:50;;;;;;;58.22;34.70;;;;;;;2.01;74.42;101045.69;4904083;29;20397;-67
2021/01/02 09:00:23;;;;;;;53.97;33.80;;;;;;;2.22;74.71;101047.63;4877031;29;20069;-67
2021/01/02 09:03:07;;;;;;;55.97;34.72;;;;;;;2.43;73.87;101046.00;4879991;29;20056;-67
2021/01/02 09:05:39;;;;;;;56.13;34.95;;;;;;;2.35;73.25;101040.19;4896475;29;20064;-66
2021/01/02 09:08:07;;;;;;;59.67;34.53;;;;;;;2.17;73.82;101044.84;4896945;29;20053;-67
2021/01/02 09:10:44;;;;;;;52.90;32.55;;;;;;;2.41;73.58;101040.00;4897295;29;20064;-68
2021/01/02 09:13:16;;;;;;;51.80;32.15;;;;;;;2.53;73.35;101042.59;4877524;29;20061;-66
2021/01/02 09:15:56;;;;;;;51.75;32.95;;;;;;;2.83;72.49;101045.69;4896633;29;20049;-67
2021/01/02 09:18:23;;;;;;;54.63;33.13;;;;;;;2.89;72.05;101050.94;4896139;29;20052;-68
2021/01/02 09:20:50;;;;;;;54.83;32.55;;;;;;;2.90;71.75;101052.56;4896903;29;20053;-69
2021/01/02 09:23:43;;;;;;;53.17;32.42;;;;;;;2.90;71.48;101049.84;4862024;29;20065;-68
2021/01/02 09:26:37;;;;;;;51.72;32.65;;;;;;;3.23;70.96;101057.00;4893333;29;20053;-69
2021/01/02 09:29:15;;;;;;;51.45;32.20;;;;;;;3.31;70.06;101062.00;4891123;29;20061;-69
2021/01/02 09:36:03;;;;;;;51.15;30.35;;;;;;;3.17;70.87;101063.50;4880355;29;20421;-70
2021/01/02 09:38:30;;;;;;;55.63;31.30;;;;;;;2.78;71.07;101065.50;4897722;29;20049;-67
2021/01/02 09:40:58;;;;;;;52.40;31.55;;;;;;;2.78;71.84;101061.94;4900944;29;20060;-67
2021/01/02 09:43:25;;;;;;;49.25;30.45;;;;;;;3.22;71.18;101067.09;4895665;29;20067;-69
2021/01/02 09:45:52;;;;;;;49.92;31.45;;;;;;;3.31;70.60;101073.69;4900900;29;20049;-70
2021/01/02 09:48:19;;;;;;;51.05;30.08;;;;;;;3.29;69.66;101073.16;4900717;29;20056;-69
2021/01/02 09:50:46;;;;;;;47.03;30.75;;;;;;;2.98;70.42;101071.16;4900783;29;20048;-69
2021/01/02 09:53:14;;;;;;;51.63;30.65;;;;;;;2.62;71.56;101082.69;4900273;29;20056;-69
2021/01/02 09:55:41;;;;;;;51.17;32.00;;;;;;;2.49;72.10;101079.53;4900011;29;20064;-67
2021/01/02 09:58:10;;;;;;;52.72;32.20;;;;;;;2.74;72.20;101077.94;4900652;29;20044;-68
2021/01/02 10:00:37;;;;;;;49.15;31.45;;;;;;;3.01;71.23;101083.44;4900955;29;20071;-68
2021/01/02 10:03:07;;;;;;;50.30;30.80;;;;;;;3.18;70.68;101087.72;4900448;29;20060;-69
2021/01/02 10:05:48;;;;;;;54.92;31.58;;;;;;;3.14;70.14;101085.75;4883227;29;20060;-68
2021/01/02 10:08:15;;;;;;;47.63;30.55;;;;;;;3.12;69.74;101085.22;4880132;29;20064;-67
2021/01/02 10:10:42;;;;;;;48.38;29.77;;;;;;;2.96;70.73;101078.78;4898538;29;20059;-68
2021/01/02 10:13:13;;;;;;;53.55;30.52;;;;;;;3.25;70.45;101079.34;4880732;29;20485;-68
2021/01/02 10:15:40;;;;;;;44.90;29.40;;;;;;;3.19;70.08;101083.13;4881795;29;20497;-69
2021/01/02 10:18:07;;;;;;;47.25;29.05;;;;;;;3.08;70.23;101087.63;4900172;29;20074;-69
2021/01/02 10:20:35;;;;;;;45.65;29.92;;;;;;;3.00;70.42;101074.44;4881005;29;20045;-67
2021/01/02 10:23:03;;;;;;;52.33;30.95;;;;;;;3.27;69.96;101072.59;4899713;29;20056;-65
2021/01/02 10:25:31;;;;;;;48.10;30.17;;;;;;;3.63;69.29;101078.38;4900175;29;20374;-68
2021/01/02 10:27:58;;;;;;;46.03;29.73;;;;;;;3.85;68.83;101082.66;4898472;29;20049;-67
2021/01/02 10:30:25;;;;;;;46.33;29.45;;;;;;;3.73;68.43;101076.53;4899826;29;20386;-67
2021/01/02 10:32:51;;;;;;;47.10;29.15;;;;;;;3.98;68.44;101075.91;4882976;29;20053;-67
2021/01/02 10:35:18;;;;;;;48.50;31.27;;;;;;;4.16;67.36;101072.78;4899791;29;20053;-67
2021/01/02 10:37:47;;;;;;;44.22;29.63;;;;;;;3.82;67.74;101077.69;4899929;29;20052;-68
2021/01/02 10:40:15;;;;;;;50.60;30.77;;;;;;;3.49;68.89;101072.50;4900201;29;20057;-67
2021/01/02 10:42:42;;;;;;;50.63;30.27;;;;;;;3.60;69.73;101070.69;4899726;29;20061;-66
2021/01/02 10:45:13;;;;;;;48.83;31.95;;;;;;;3.82;68.90;101069.53;4899010;29;20053;-68
2021/01/02 10:47:40;;;;;;;49.42;31.30;;;;;;;3.55;69.28;101070.66;4899213;29;20430;-66
2021/01/02 10:50:07;;;;;;;51.05;31.60;;;;;;;3.72;69.75;101066.72;4899299;29;20497;-68
2021/01/02 10:52:34;;;;;;;46.03;30.67;;;;;;;3.89;68.83;101056.50;4899306;29;20064;-68
2021/01/02 10:55:03;;;;;;;48.22;30.63;;;;;;;3.84;68.97;101050.19;4898668;29;20060;-67
2021/01/02 10:57:30;;;;;;;53.78;31.65;;;;;;;3.40;70.49;101046.81;4898925;29;20489;-66
2021/01/02 10:59:59;;;;;;;50.08;32.67;;;;;;;3.22;70.89;101049.94;4879261;29;20100;-68
2021/01/02 11:02:26;;;;;;;53.47;32.73;;;;;;;3.38;71.30;101036.19;4895754;29;20060;-67
2021/01/02 11:04:53;;;;;;;53.88;33.75;;;;;;;3.54;70.82;101041.78;4898762;29;20068;-67
2021/01/02 11:07:24;;;;;;;51.75;32.13;;;;;;;3.54;70.46;101036.34;4898588;29;20053;-66
2021/01/02 11:09:52;;;;;;;48.85;31.83;;;;;;;3.50;70.96;101033.31;4898230;29;20064;-67
2021/01/02 11:12:21;;;;;;;50.53;32.25;;;;;;;3.64;70.67;101034.53;4898800;29;20052;-67
2021/01/02 11:14:52;;;;;;;52.03;31.85;;;;;;;3.77;70.50;101034.06;4899021;29;20060;-67
2021/01/02 11:17:20;;;;;;;48.58;32.28;;;;;;;3.84;70.24;101033.84;4875699;29;20521;-66
2021/01/02 11:19:47;;;;;;;52.25;31.92;;;;;;;4.06;69.65;101021.72;4880458;29;20061;-68
2021/01/02 11:22:15;;;;;;;48.42;31.75;;;;;;;3.89;69.75;101018.34;4894428;29;20041;-65
2021/01/02 11:24:44;;;;;;;51.40;32.05;;;;;;;3.92;69.38;101017.84;4897246;29;20290;-67
2021/01/02 11:27:14;;;;;;;54.90;33.88;;;;;;;3.72;70.44;101005.97;4898760;29;20064;-67
2021/01/02 11:29:41;;;;;;;;;;;;;;;3.59;70.91;101009.97;4898424;29;20493;-66
2021/01/02 11:32:11;;;;;;;45.08;30.48;;;;;;;3.49;71.15;101009.06;4898761;29;20299;-65
2021/01/02 11:34:39;;;;;;;49.95;31.02;;;;;;;3.92;70.48;101011.56;4897384;29;20064;-66
2021/01/02 11:37:11;;;;;;;45.80;28.95;;;;;;;3.99;69.71;101002.06;4898596;29;20053;-66
2021/01/02 11:39:40;;;;;;;48.45;30.27;;;;;;;4.15;69.62;101003.00;4897722;29;20056;-66
2021/01/02 11:42:11;;;;;;;45.38;29.23;;;;;;;4.27;69.08;100988.06;4879259;29;20402;-66
2021/01/02 11:44:38;;;;;;;45.67;29.15;;;;;;;4.12;69.06;100993.44;4896041;29;20053;-66
2021/01/02 11:47:05;;;;;;;44.22;29.02;;;;;;;3.87;69.63;100989.75;4878319;29;20057;-65
2021/01/02 11:49:34;;;;;;;45.90;30.75;;;;;;;3.96;69.56;100988.97;4895744;29;20059;-67
2021/01/02 11:52:05;;;;;;;39.88;27.63;;;;;;;4.09;69.26;100985.78;4897774;29;20056;-65
2021/01/02 11:54:34;;;;;;;46.40;29.13;;;;;;;4.08;69.32;100981.41;4898106;29;20063;-66
2021/01/02 11:57:04;;;;;;;50.50;29.27;;;;;;;4.28;69.21;100967.91;4878181;29;20053;-66
2021/01/02 11:59:30;;;;;;;48.58;28.92;;;;;;;4.13;69.38;100964.28;4895180;29;20382;-67
2021/01/02 12:02:03;;;;;;;44.42;28.50;;;;;;;3.98;70.19;100962.28;4897459;29;20048;-67
2021/01/02 12:04:30;;;;;;;50.03;29.40;;;;;;;3.67;71.14;100955.00;4878013;29;20064;-66
2021/01/02 12:06:58;;;;;;;47.55;29.48;;;;;;;3.39;72.19;100961.63;4876570;29;20524;-66
2021/01/02 12:09:27;;;;;;;44.88;29.50;;;;;;;3.40;73.19;100948.81;4893359;29;20489;-66
2021/01/02 12:11:55;;;;;;;44.67;30.65;;;;;;;3.35;72.74;100956.94;4881328;29;20056;-66
2021/01/02 12:14:25;;;;;;;46.70;29.85;;;;;;;3.20;73.60;100949.50;4897908;29;20516;-67
2021/01/02 12:16:52;;;;;;;;;;;;;;;3.20;73.81;100949.50;4896313;29;20045;-67
2021/01/02 12:23:48;;;;;;;43.95;29.35;;;;;;;3.41;72.60;100943.13;4821583;29;20403;-66
2021/01/02 12:26:16;;;;;;;47.08;28.73;;;;;;;3.19;74.22;100936.94;4820316;29;20058;-66
2021/01/02 12:28:47;;;;;;;46.75;28.90;;;;;;;3.21;74.19;100939.41;4821631;29;20059;-66
2021/01/02 12:31:18;;;;;;;42.70;28.42;;;;;;;3.56;72.78;100939.69;4821580;29;20419;-68
2021/01/02 12:38:09;;;;;;;43.05;27.08;;;;;;;3.62;73.81;100926.91;4861858;29;20057;-65
2021/01/02 12:40:36;;;;;;;47.17;28.58;;;;;;;3.82;72.40;100922.41;4896206;29;20393;-67
2021/01/02 12:43:03;;;;;;;39.95;27.25;;;;;;;3.97;73.01;100914.34;4877538;29;20502;-67